sensor_id;sensor_type;location;lat;lon;timestamp;P1;durP1;ratioP1;P2;durP2;ratioP2
21202;SDS011;10759;51.982;9.232;2023-04-24T00:00:14;1.08;;;1.08;;
21202;SDS011;10759;51.982;9.232;2023-04-24T00:02:44;1.73;;;1.30;;
21202;SDS011;10759;51.982;9.232;2023-04-24T00:05:14;0.90;;;0.90;;
21202;SDS011;10759;51.982;9.232;2023-04-24T00:07:43;1.60;;;1.02;;
21202;SDS011;10759;51.982;9.232;2023-04-24T00:10:12;1.45;;;1.20;;
21202;SDS011;10759;51.982;9.232;2023-04-24T00:12:40;1.25;;;1.00;;
21202;SDS011;10759;51.982;9.232;2023-04-24T00:15:10;1.58;;;1.00;;
21202;SDS011;10759;51.982;9.232;2023-04-24T00:20:06;1.08;;;1.08;;
21202;SDS011;10759;51.982;9.232;2023-04-24T00:22:36;1.25;;;1.10;;
21202;SDS011;10759;51.982;9.232;2023-04-24T00:25:04;1.33;;;1.23;;
21202;SDS011;10759;51.982;9.232;2023-04-24T00:27:33;1.55;;;1.08;;
21202;SDS011;10759;51.982;9.232;2023-04-24T00:30:03;1.10;;;1.05;;
21202;SDS011;10759;51.982;9.232;2023-04-24T00:32:33;1.27;;;1.17;;
21202;SDS011;10759;51.982;9.232;2023-04-24T00:35:01;1.55;;;1.17;;
21202;SDS011;10759;51.982;9.232;2023-04-24T00:37:29;0.90;;;0.90;;
21202;SDS011;10759;51.982;9.232;2023-04-24T00:39:57;1.65;;;1.23;;
21202;SDS011;10759;51.982;9.232;2023-04-24T00:42:25;1.23;;;1.15;;
21202;SDS011;10759;51.982;9.232;2023-04-24T00:44:53;0.80;;;0.80;;
21202;SDS011;10759;51.982;9.232;2023-04-24T00:47:21;3.38;;;1.20;;
21202;SDS011;10759;51.982;9.232;2023-04-24T00:49:50;1.98;;;1.30;;
21202;SDS011;10759;51.982;9.232;2023-04-24T00:52:18;1.10;;;1.10;;
21202;SDS011;10759;51.982;9.232;2023-04-24T00:54:47;1.15;;;1.15;;
21202;SDS011;10759;51.982;9.232;2023-04-24T00:57:15;1.30;;;1.20;;
21202;SDS011;10759;51.982;9.232;2023-04-24T00:59:43;1.15;;;1.08;;
21202;SDS011;10759;51.982;9.232;2023-04-24T01:02:11;1.17;;;0.98;;
21202;SDS011;10759;51.982;9.232;2023-04-24T01:07:11;1.20;;;1.10;;
21202;SDS011;10759;51.982;9.232;2023-04-24T01:09:40;1.10;;;1.10;;
21202;SDS011;10759;51.982;9.232;2023-04-24T01:12:09;2.17;;;1.35;;
21202;SDS011;10759;51.982;9.232;2023-04-24T01:14:37;1.75;;;1.15;;
21202;SDS011;10759;51.982;9.232;2023-04-24T01:17:05;1.10;;;1.10;;
21202;SDS011;10759;51.982;9.232;2023-04-24T01:19:33;1.25;;;1.15;;
21202;SDS011;10759;51.982;9.232;2023-04-24T01:22:03;1.52;;;1.00;;
21202;SDS011;10759;51.982;9.232;2023-04-24T01:24:34;1.10;;;1.10;;
21202;SDS011;10759;51.982;9.232;2023-04-24T01:27:03;1.42;;;1.00;;
21202;SDS011;10759;51.982;9.232;2023-04-24T01:29:31;2.58;;;1.00;;
21202;SDS011;10759;51.982;9.232;2023-04-24T01:32:01;1.38;;;1.20;;
21202;SDS011;10759;51.982;9.232;2023-04-24T01:34:30;1.00;;;1.00;;
21202;SDS011;10759;51.982;9.232;2023-04-24T01:36:58;0.82;;;0.82;;
21202;SDS011;10759;51.982;9.232;2023-04-24T01:39:26;0.95;;;0.95;;
21202;SDS011;10759;51.982;9.232;2023-04-24T01:41:56;0.95;;;0.82;;
21202;SDS011;10759;51.982;9.232;2023-04-24T01:44:24;0.90;;;0.90;;
21202;SDS011;10759;51.982;9.232;2023-04-24T01:46:52;1.77;;;0.90;;
21202;SDS011;10759;51.982;9.232;2023-04-24T01:49:20;0.70;;;0.70;;
21202;SDS011;10759;51.982;9.232;2023-04-24T01:51:48;1.65;;;0.95;;
21202;SDS011;10759;51.982;9.232;2023-04-24T01:54:16;0.93;;;0.75;;
21202;SDS011;10759;51.982;9.232;2023-04-24T01:56:44;2.05;;;0.70;;
21202;SDS011;10759;51.982;9.232;2023-04-24T01:59:14;0.73;;;0.73;;
21202;SDS011;10759;51.982;9.232;2023-04-24T02:01:44;0.70;;;0.70;;
21202;SDS011;10759;51.982;9.232;2023-04-24T02:04:12;0.80;;;0.80;;
21202;SDS011;10759;51.982;9.232;2023-04-24T02:06:41;1.27;;;0.75;;
21202;SDS011;10759;51.982;9.232;2023-04-24T02:09:09;1.00;;;0.70;;
21202;SDS011;10759;51.982;9.232;2023-04-24T02:11:38;0.80;;;0.80;;
21202;SDS011;10759;51.982;9.232;2023-04-24T02:14:05;1.65;;;0.88;;
21202;SDS011;10759;51.982;9.232;2023-04-24T02:16:35;0.73;;;0.73;;
21202;SDS011;10759;51.982;9.232;2023-04-24T02:19:03;0.65;;;0.65;;
21202;SDS011;10759;51.982;9.232;2023-04-24T02:21:31;1.25;;;0.90;;
21202;SDS011;10759;51.982;9.232;2023-04-24T02:24:00;1.85;;;0.80;;
21202;SDS011;10759;51.982;9.232;2023-04-24T02:26:28;1.23;;;0.90;;
21202;SDS011;10759;51.982;9.232;2023-04-24T02:28:58;0.82;;;0.82;;
21202;SDS011;10759;51.982;9.232;2023-04-24T02:31:26;0.75;;;0.70;;
21202;SDS011;10759;51.982;9.232;2023-04-24T02:33:55;2.17;;;0.80;;
21202;SDS011;10759;51.982;9.232;2023-04-24T02:36:22;2.10;;;0.80;;
21202;SDS011;10759;51.982;9.232;2023-04-24T02:38:50;1.00;;;0.90;;
21202;SDS011;10759;51.982;9.232;2023-04-24T02:41:18;0.88;;;0.85;;
21202;SDS011;10759;51.982;9.232;2023-04-24T02:43:46;1.30;;;1.10;;
21202;SDS011;10759;51.982;9.232;2023-04-24T02:46:14;0.90;;;0.90;;
21202;SDS011;10759;51.982;9.232;2023-04-24T02:48:43;2.78;;;1.00;;
21202;SDS011;10759;51.982;9.232;2023-04-24T02:51:12;0.90;;;0.90;;
21202;SDS011;10759;51.982;9.232;2023-04-24T02:53:40;1.20;;;1.00;;
21202;SDS011;10759;51.982;9.232;2023-04-24T02:56:08;0.85;;;0.85;;
21202;SDS011;10759;51.982;9.232;2023-04-24T02:58:38;1.38;;;0.80;;
21202;SDS011;10759;51.982;9.232;2023-04-24T03:01:06;1.23;;;1.00;;
21202;SDS011;10759;51.982;9.232;2023-04-24T03:03:34;2.15;;;0.90;;
21202;SDS011;10759;51.982;9.232;2023-04-24T03:06:02;1.00;;;0.90;;
21202;SDS011;10759;51.982;9.232;2023-04-24T03:08:33;3.53;;;1.00;;
21202;SDS011;10759;51.982;9.232;2023-04-24T03:11:01;2.00;;;0.90;;
21202;SDS011;10759;51.982;9.232;2023-04-24T03:13:30;0.93;;;0.93;;
21202;SDS011;10759;51.982;9.232;2023-04-24T03:15:58;0.80;;;0.75;;
21202;SDS011;10759;51.982;9.232;2023-04-24T03:18:26;0.80;;;0.80;;
21202;SDS011;10759;51.982;9.232;2023-04-24T03:20:54;1.42;;;0.95;;
21202;SDS011;10759;51.982;9.232;2023-04-24T03:23:22;1.35;;;1.25;;
21202;SDS011;10759;51.982;9.232;2023-04-24T03:25:52;0.93;;;0.93;;
21202;SDS011;10759;51.982;9.232;2023-04-24T03:31:02;0.70;;;0.70;;
21202;SDS011;10759;51.982;9.232;2023-04-24T03:33:34;1.05;;;0.98;;
21202;SDS011;10759;51.982;9.232;2023-04-24T03:36:02;0.63;;;0.63;;
21202;SDS011;10759;51.982;9.232;2023-04-24T03:38:38;0.70;;;0.70;;
21202;SDS011;10759;51.982;9.232;2023-04-24T03:41:30;0.73;;;0.73;;
21202;SDS011;10759;51.982;9.232;2023-04-24T03:44:04;1.48;;;0.80;;
21202;SDS011;10759;51.982;9.232;2023-04-24T03:46:32;0.90;;;0.90;;
21202;SDS011;10759;51.982;9.232;2023-04-24T03:49:01;1.13;;;1.00;;
21202;SDS011;10759;51.982;9.232;2023-04-24T03:51:33;0.80;;;0.80;;
21202;SDS011;10759;51.982;9.232;2023-04-24T03:54:10;1.05;;;0.95;;
21202;SDS011;10759;51.982;9.232;2023-04-24T03:56:40;4.00;;;1.02;;
21202;SDS011;10759;51.982;9.232;2023-04-24T03:59:08;0.70;;;0.70;;
21202;SDS011;10759;51.982;9.232;2023-04-24T04:01:37;0.80;;;0.80;;
21202;SDS011;10759;51.982;9.232;2023-04-24T04:04:13;1.73;;;1.00;;
21202;SDS011;10759;51.982;9.232;2023-04-24T04:06:42;1.00;;;1.00;;
21202;SDS011;10759;51.982;9.232;2023-04-24T04:09:11;1.40;;;0.93;;
21202;SDS011;10759;51.982;9.232;2023-04-24T04:11:40;3.03;;;0.90;;
21202;SDS011;10759;51.982;9.232;2023-04-24T04:14:08;0.90;;;0.90;;
21202;SDS011;10759;51.982;9.232;2023-04-24T04:16:39;1.05;;;1.00;;
21202;SDS011;10759;51.982;9.232;2023-04-24T04:19:08;2.13;;;2.03;;
21202;SDS011;10759;51.982;9.232;2023-04-24T04:21:37;1.88;;;1.08;;
21202;SDS011;10759;51.982;9.232;2023-04-24T04:24:19;1.00;;;1.00;;
21202;SDS011;10759;51.982;9.232;2023-04-24T04:26:50;1.40;;;1.17;;
21202;SDS011;10759;51.982;9.232;2023-04-24T04:29:31;1.55;;;1.00;;
21202;SDS011;10759;51.982;9.232;2023-04-24T04:32:03;1.05;;;0.90;;
21202;SDS011;10759;51.982;9.232;2023-04-24T04:34:31;0.90;;;0.90;;
21202;SDS011;10759;51.982;9.232;2023-04-24T04:36:59;2.40;;;1.38;;
21202;SDS011;10759;51.982;9.232;2023-04-24T04:39:42;1.13;;;1.00;;
21202;SDS011;10759;51.982;9.232;2023-04-24T04:42:21;1.80;;;1.13;;
21202;SDS011;10759;51.982;9.232;2023-04-24T04:44:50;1.02;;;1.02;;
21202;SDS011;10759;51.982;9.232;2023-04-24T04:47:24;1.75;;;1.10;;
21202;SDS011;10759;51.982;9.232;2023-04-24T04:52:26;1.40;;;1.30;;
21202;SDS011;10759;51.982;9.232;2023-04-24T04:55:13;1.05;;;1.05;;
21202;SDS011;10759;51.982;9.232;2023-04-24T04:58:02;2.20;;;1.30;;
21202;SDS011;10759;51.982;9.232;2023-04-24T05:00:30;1.52;;;1.08;;
21202;SDS011;10759;51.982;9.232;2023-04-24T05:03:07;0.90;;;0.90;;
21202;SDS011;10759;51.982;9.232;2023-04-24T05:05:48;1.35;;;0.95;;
21202;SDS011;10759;51.982;9.232;2023-04-24T05:08:17;1.73;;;1.10;;
21202;SDS011;10759;51.982;9.232;2023-04-24T05:10:53;1.10;;;1.00;;
21202;SDS011;10759;51.982;9.232;2023-04-24T05:13:25;1.85;;;1.58;;
21202;SDS011;10759;51.982;9.232;2023-04-24T05:16:14;1.38;;;1.27;;
21202;SDS011;10759;51.982;9.232;2023-04-24T05:18:43;1.90;;;1.52;;
21202;SDS011;10759;51.982;9.232;2023-04-24T05:21:14;1.75;;;1.48;;
21202;SDS011;10759;51.982;9.232;2023-04-24T05:23:46;2.58;;;1.65;;
21202;SDS011;10759;51.982;9.232;2023-04-24T05:26:20;2.35;;;1.77;;
21202;SDS011;10759;51.982;9.232;2023-04-24T05:28:51;1.60;;;1.48;;
21202;SDS011;10759;51.982;9.232;2023-04-24T05:31:18;1.67;;;1.58;;
21202;SDS011;10759;51.982;9.232;2023-04-24T05:33:46;1.95;;;1.73;;
21202;SDS011;10759;51.982;9.232;2023-04-24T05:36:14;1.85;;;1.70;;
21202;SDS011;10759;51.982;9.232;2023-04-24T05:38:42;2.22;;;2.13;;
21202;SDS011;10759;51.982;9.232;2023-04-24T05:41:10;2.65;;;2.00;;
21202;SDS011;10759;51.982;9.232;2023-04-24T05:43:38;2.00;;;1.90;;
21202;SDS011;10759;51.982;9.232;2023-04-24T05:46:07;2.65;;;2.45;;
21202;SDS011;10759;51.982;9.232;2023-04-24T05:48:35;2.42;;;2.22;;
21202;SDS011;10759;51.982;9.232;2023-04-24T05:51:03;2.35;;;2.15;;
21202;SDS011;10759;51.982;9.232;2023-04-24T05:53:31;3.40;;;2.15;;
21202;SDS011;10759;51.982;9.232;2023-04-24T05:55:59;2.95;;;2.63;;
21202;SDS011;10759;51.982;9.232;2023-04-24T05:58:28;3.10;;;2.28;;
21202;SDS011;10759;51.982;9.232;2023-04-24T06:00:56;3.42;;;2.92;;
21202;SDS011;10759;51.982;9.232;2023-04-24T06:03:26;2.35;;;2.15;;
21202;SDS011;10759;51.982;9.232;2023-04-24T06:05:54;3.20;;;3.00;;
21202;SDS011;10759;51.982;9.232;2023-04-24T06:08:23;2.92;;;2.72;;
21202;SDS011;10759;51.982;9.232;2023-04-24T06:10:52;3.47;;;3.17;;
21202;SDS011;10759;51.982;9.232;2023-04-24T06:13:21;3.17;;;2.95;;
21202;SDS011;10759;51.982;9.232;2023-04-24T06:16:07;3.28;;;3.08;;
21202;SDS011;10759;51.982;9.232;2023-04-24T06:18:40;3.13;;;2.88;;
21202;SDS011;10759;51.982;9.232;2023-04-24T06:21:08;3.63;;;3.33;;
21202;SDS011;10759;51.982;9.232;2023-04-24T06:23:36;4.30;;;3.90;;
21202;SDS011;10759;51.982;9.232;2023-04-24T06:26:03;4.80;;;4.40;;
21202;SDS011;10759;51.982;9.232;2023-04-24T06:28:32;8.38;;;4.00;;
21202;SDS011;10759;51.982;9.232;2023-04-24T06:30:59;4.57;;;4.18;;
21202;SDS011;10759;51.982;9.232;2023-04-24T06:33:28;4.47;;;4.15;;
21202;SDS011;10759;51.982;9.232;2023-04-24T06:35:58;5.07;;;4.47;;
21202;SDS011;10759;51.982;9.232;2023-04-24T06:38:27;4.95;;;4.65;;
21202;SDS011;10759;51.982;9.232;2023-04-24T06:40:55;4.60;;;4.20;;
21202;SDS011;10759;51.982;9.232;2023-04-24T06:43:23;4.85;;;4.53;;
21202;SDS011;10759;51.982;9.232;2023-04-24T06:45:51;6.35;;;5.95;;
21202;SDS011;10759;51.982;9.232;2023-04-24T06:48:19;7.80;;;7.10;;
21202;SDS011;10759;51.982;9.232;2023-04-24T06:50:47;8.65;;;7.93;;
21202;SDS011;10759;51.982;9.232;2023-04-24T06:53:16;7.45;;;6.90;;
21202;SDS011;10759;51.982;9.232;2023-04-24T06:55:44;8.20;;;7.40;;
21202;SDS011;10759;51.982;9.232;2023-04-24T06:58:12;8.93;;;8.23;;
21202;SDS011;10759;51.982;9.232;2023-04-24T07:00:41;8.60;;;7.90;;
21202;SDS011;10759;51.982;9.232;2023-04-24T07:03:09;8.88;;;8.18;;
21202;SDS011;10759;51.982;9.232;2023-04-24T07:05:37;8.52;;;7.90;;
21202;SDS011;10759;51.982;9.232;2023-04-24T07:08:05;8.70;;;8.00;;
21202;SDS011;10759;51.982;9.232;2023-04-24T07:10:36;8.43;;;7.72;;
21202;SDS011;10759;51.982;9.232;2023-04-24T07:13:04;8.52;;;7.82;;
21202;SDS011;10759;51.982;9.232;2023-04-24T07:15:33;9.30;;;8.50;;
21202;SDS011;10759;51.982;9.232;2023-04-24T07:18:01;8.93;;;8.23;;
21202;SDS011;10759;51.982;9.232;2023-04-24T07:22:59;7.47;;;6.82;;
21202;SDS011;10759;51.982;9.232;2023-04-24T07:25:27;8.05;;;7.43;;
21202;SDS011;10759;51.982;9.232;2023-04-24T07:27:56;8.43;;;7.72;;
21202;SDS011;10759;51.982;9.232;2023-04-24T07:30:24;7.57;;;6.97;;
21202;SDS011;10759;51.982;9.232;2023-04-24T07:32:52;7.40;;;6.90;;
21202;SDS011;10759;51.982;9.232;2023-04-24T07:35:20;7.45;;;6.85;;
21202;SDS011;10759;51.982;9.232;2023-04-24T07:37:48;8.32;;;7.70;;
21202;SDS011;10759;51.982;9.232;2023-04-24T07:40:16;7.47;;;6.88;;
21202;SDS011;10759;51.982;9.232;2023-04-24T07:42:44;7.78;;;7.07;;
21202;SDS011;10759;51.982;9.232;2023-04-24T07:45:16;7.82;;;7.22;;
21202;SDS011;10759;51.982;9.232;2023-04-24T07:47:44;7.97;;;7.18;;
21202;SDS011;10759;51.982;9.232;2023-04-24T07:50:12;7.13;;;6.47;;
21202;SDS011;10759;51.982;9.232;2023-04-24T07:52:40;6.75;;;6.15;;
21202;SDS011;10759;51.982;9.232;2023-04-24T07:55:08;6.38;;;5.88;;
21202;SDS011;10759;51.982;9.232;2023-04-24T07:57:36;6.35;;;5.75;;
21202;SDS011;10759;51.982;9.232;2023-04-24T08:00:04;6.38;;;5.78;;
21202;SDS011;10759;51.982;9.232;2023-04-24T08:02:41;6.03;;;5.60;;
21202;SDS011;10759;51.982;9.232;2023-04-24T08:05:09;6.33;;;5.83;;
21202;SDS011;10759;51.982;9.232;2023-04-24T08:07:37;6.28;;;5.80;;
21202;SDS011;10759;51.982;9.232;2023-04-24T08:10:06;6.55;;;6.00;;
21202;SDS011;10759;51.982;9.232;2023-04-24T08:12:34;7.15;;;6.55;;
21202;SDS011;10759;51.982;9.232;2023-04-24T08:15:02;6.72;;;6.03;;
21202;SDS011;10759;51.982;9.232;2023-04-24T08:17:32;5.55;;;5.15;;
21202;SDS011;10759;51.982;9.232;2023-04-24T08:20:01;6.32;;;5.72;;
21202;SDS011;10759;51.982;9.232;2023-04-24T08:22:31;6.32;;;5.90;;
21202;SDS011;10759;51.982;9.232;2023-04-24T08:24:59;6.00;;;5.40;;
21202;SDS011;10759;51.982;9.232;2023-04-24T08:27:28;6.47;;;5.80;;
21202;SDS011;10759;51.982;9.232;2023-04-24T08:29:56;6.60;;;6.10;;
21202;SDS011;10759;51.982;9.232;2023-04-24T08:32:25;5.93;;;5.43;;
21202;SDS011;10759;51.982;9.232;2023-04-24T08:34:54;6.20;;;5.60;;
21202;SDS011;10759;51.982;9.232;2023-04-24T08:37:25;5.65;;;5.25;;
21202;SDS011;10759;51.982;9.232;2023-04-24T08:39:53;5.60;;;5.20;;
21202;SDS011;10759;51.982;9.232;2023-04-24T08:42:21;5.47;;;4.97;;
21202;SDS011;10759;51.982;9.232;2023-04-24T08:44:50;5.38;;;4.97;;
21202;SDS011;10759;51.982;9.232;2023-04-24T08:47:18;7.03;;;5.20;;
21202;SDS011;10759;51.982;9.232;2023-04-24T08:49:48;4.90;;;4.50;;
21202;SDS011;10759;51.982;9.232;2023-04-24T08:52:17;4.97;;;4.57;;
21202;SDS011;10759;51.982;9.232;2023-04-24T08:54:47;3.97;;;3.72;;
21202;SDS011;10759;51.982;9.232;2023-04-24T08:57:15;3.80;;;3.42;;
21202;SDS011;10759;51.982;9.232;2023-04-24T08:59:44;3.78;;;3.47;;
21202;SDS011;10759;51.982;9.232;2023-04-24T09:02:12;3.60;;;3.35;;
21202;SDS011;10759;51.982;9.232;2023-04-24T09:04:42;2.80;;;2.60;;
21202;SDS011;10759;51.982;9.232;2023-04-24T09:07:11;3.03;;;2.83;;
21202;SDS011;10759;51.982;9.232;2023-04-24T09:09:41;5.00;;;3.00;;
21202;SDS011;10759;51.982;9.232;2023-04-24T09:12:11;3.50;;;3.20;;
21202;SDS011;10759;51.982;9.232;2023-04-24T09:14:39;3.28;;;2.97;;
21202;SDS011;10759;51.982;9.232;2023-04-24T09:17:11;3.75;;;3.40;;
21202;SDS011;10759;51.982;9.232;2023-04-24T09:19:39;2.95;;;2.75;;
21202;SDS011;10759;51.982;9.232;2023-04-24T09:22:08;3.42;;;3.13;;
21202;SDS011;10759;51.982;9.232;2023-04-24T09:24:37;4.63;;;2.92;;
21202;SDS011;10759;51.982;9.232;2023-04-24T09:27:06;3.72;;;3.53;;
21202;SDS011;10759;51.982;9.232;2023-04-24T09:29:38;2.60;;;2.40;;
21202;SDS011;10759;51.982;9.232;2023-04-24T09:35:09;3.17;;;2.92;;
21202;SDS011;10759;51.982;9.232;2023-04-24T09:37:44;3.50;;;3.20;;
21202;SDS011;10759;51.982;9.232;2023-04-24T09:40:15;2.83;;;2.63;;
21202;SDS011;10759;51.982;9.232;2023-04-24T09:42:44;3.20;;;3.00;;
21202;SDS011;10759;51.982;9.232;2023-04-24T09:45:14;4.00;;;3.05;;
21202;SDS011;10759;51.982;9.232;2023-04-24T09:47:42;2.60;;;2.45;;
21202;SDS011;10759;51.982;9.232;2023-04-24T09:50:12;2.92;;;2.65;;
21202;SDS011;10759;51.982;9.232;2023-04-24T09:52:43;2.58;;;2.47;;
21202;SDS011;10759;51.982;9.232;2023-04-24T09:55:13;2.50;;;2.28;;
21202;SDS011;10759;51.982;9.232;2023-04-24T09:57:49;3.67;;;2.60;;
21202;SDS011;10759;51.982;9.232;2023-04-24T10:00:20;3.85;;;2.35;;
21202;SDS011;10759;51.982;9.232;2023-04-24T10:02:50;2.65;;;2.45;;
21202;SDS011;10759;51.982;9.232;2023-04-24T10:05:21;2.83;;;2.63;;
21202;SDS011;10759;51.982;9.232;2023-04-24T10:07:51;2.25;;;2.15;;
21202;SDS011;10759;51.982;9.232;2023-04-24T10:10:19;2.20;;;2.10;;
21202;SDS011;10759;51.982;9.232;2023-04-24T10:12:47;2.53;;;2.33;;
21202;SDS011;10759;51.982;9.232;2023-04-24T10:15:15;3.95;;;2.33;;
21202;SDS011;10759;51.982;9.232;2023-04-24T10:17:48;3.45;;;1.90;;
21202;SDS011;10759;51.982;9.232;2023-04-24T10:20:19;2.33;;;2.00;;
21202;SDS011;10759;51.982;9.232;2023-04-24T10:22:49;2.22;;;1.60;;
21202;SDS011;10759;51.982;9.232;2023-04-24T10:25:18;1.50;;;1.40;;
21202;SDS011;10759;51.982;9.232;2023-04-24T10:27:47;1.60;;;1.50;;
21202;SDS011;10759;51.982;9.232;2023-04-24T10:30:16;1.97;;;1.87;;
21202;SDS011;10759;51.982;9.232;2023-04-24T10:32:45;1.60;;;1.50;;
21202;SDS011;10759;51.982;9.232;2023-04-24T10:35:15;1.35;;;1.25;;
21202;SDS011;10759;51.982;9.232;2023-04-24T10:37:48;1.35;;;1.35;;
21202;SDS011;10759;51.982;9.232;2023-04-24T10:40:25;2.15;;;1.88;;
21202;SDS011;10759;51.982;9.232;2023-04-24T10:42:54;1.63;;;1.48;;
21202;SDS011;10759;51.982;9.232;2023-04-24T10:45:24;1.30;;;1.20;;
21202;SDS011;10759;51.982;9.232;2023-04-24T10:47:53;1.80;;;1.70;;
21202;SDS011;10759;51.982;9.232;2023-04-24T10:50:26;1.65;;;1.48;;
21202;SDS011;10759;51.982;9.232;2023-04-24T10:53:04;1.55;;;1.45;;
21202;SDS011;10759;51.982;9.232;2023-04-24T10:55:41;1.63;;;1.52;;
21202;SDS011;10759;51.982;9.232;2023-04-24T10:58:11;1.70;;;1.60;;
21202;SDS011;10759;51.982;9.232;2023-04-24T11:00:40;1.65;;;1.55;;
21202;SDS011;10759;51.982;9.232;2023-04-24T11:03:22;1.58;;;1.48;;
21202;SDS011;10759;51.982;9.232;2023-04-24T11:05:55;1.15;;;1.15;;
21202;SDS011;10759;51.982;9.232;2023-04-24T11:08:28;2.20;;;1.90;;
21202;SDS011;10759;51.982;9.232;2023-04-24T11:10:59;1.65;;;1.55;;
21202;SDS011;10759;51.982;9.232;2023-04-24T11:16:43;2.05;;;1.60;;
21202;SDS011;10759;51.982;9.232;2023-04-24T11:19:17;1.80;;;1.23;;
21202;SDS011;10759;51.982;9.232;2023-04-24T11:21:55;1.08;;;1.08;;
21202;SDS011;10759;51.982;9.232;2023-04-24T11:24:30;0.88;;;0.88;;
21202;SDS011;10759;51.982;9.232;2023-04-24T11:27:05;2.05;;;0.88;;
21202;SDS011;10759;51.982;9.232;2023-04-24T11:29:38;0.90;;;0.90;;
21202;SDS011;10759;51.982;9.232;2023-04-24T11:32:14;1.08;;;0.80;;
21202;SDS011;10759;51.982;9.232;2023-04-24T11:34:45;0.75;;;0.75;;
21202;SDS011;10759;51.982;9.232;2023-04-24T11:37:16;0.75;;;0.75;;
21202;SDS011;10759;51.982;9.232;2023-04-24T11:39:44;0.70;;;0.70;;
21202;SDS011;10759;51.982;9.232;2023-04-24T11:42:14;1.10;;;0.90;;
21202;SDS011;10759;51.982;9.232;2023-04-24T11:44:42;1.20;;;1.20;;
21202;SDS011;10759;51.982;9.232;2023-04-24T11:47:10;4.13;;;1.20;;
21202;SDS011;10759;51.982;9.232;2023-04-24T11:49:38;1.10;;;1.00;;
21202;SDS011;10759;51.982;9.232;2023-04-24T11:52:06;1.10;;;1.10;;
21202;SDS011;10759;51.982;9.232;2023-04-24T11:54:36;2.05;;;1.20;;
21202;SDS011;10759;51.982;9.232;2023-04-24T11:57:04;1.40;;;1.30;;
21202;SDS011;10759;51.982;9.232;2023-04-24T11:59:36;1.20;;;1.10;;
21202;SDS011;10759;51.982;9.232;2023-04-24T12:02:05;1.30;;;1.20;;
21202;SDS011;10759;51.982;9.232;2023-04-24T12:04:39;1.30;;;1.20;;
21202;SDS011;10759;51.982;9.232;2023-04-24T12:07:09;3.00;;;1.35;;
21202;SDS011;10759;51.982;9.232;2023-04-24T12:09:41;1.77;;;1.25;;
21202;SDS011;10759;51.982;9.232;2023-04-24T12:12:12;1.75;;;1.65;;
21202;SDS011;10759;51.982;9.232;2023-04-24T12:14:42;1.95;;;1.40;;
21202;SDS011;10759;51.982;9.232;2023-04-24T12:17:14;1.60;;;1.25;;
21202;SDS011;10759;51.982;9.232;2023-04-24T12:19:46;1.70;;;1.60;;
21202;SDS011;10759;51.982;9.232;2023-04-24T12:22:14;1.58;;;1.48;;
21202;SDS011;10759;51.982;9.232;2023-04-24T12:24:56;2.50;;;1.50;;
21202;SDS011;10759;51.982;9.232;2023-04-24T12:27:25;1.45;;;1.40;;
21202;SDS011;10759;51.982;9.232;2023-04-24T12:29:55;1.70;;;1.60;;
21202;SDS011;10759;51.982;9.232;2023-04-24T12:32:24;1.40;;;1.40;;
21202;SDS011;10759;51.982;9.232;2023-04-24T12:34:53;1.83;;;1.73;;
21202;SDS011;10759;51.982;9.232;2023-04-24T12:37:22;2.35;;;2.00;;
21202;SDS011;10759;51.982;9.232;2023-04-24T12:40:03;2.00;;;1.90;;
21202;SDS011;10759;51.982;9.232;2023-04-24T12:42:34;1.70;;;1.60;;
21202;SDS011;10759;51.982;9.232;2023-04-24T12:45:02;1.60;;;1.50;;
21202;SDS011;10759;51.982;9.232;2023-04-24T12:47:32;0.77;;;0.77;;
21202;SDS011;10759;51.982;9.232;2023-04-24T12:50:02;1.05;;;1.05;;
21202;SDS011;10759;51.982;9.232;2023-04-24T12:52:30;0.80;;;0.80;;
21202;SDS011;10759;51.982;9.232;2023-04-24T12:54:59;0.80;;;0.80;;
21202;SDS011;10759;51.982;9.232;2023-04-24T12:57:29;0.77;;;0.77;;
21202;SDS011;10759;51.982;9.232;2023-04-24T12:59:58;0.60;;;0.55;;
21202;SDS011;10759;51.982;9.232;2023-04-24T13:02:27;0.95;;;0.95;;
21202;SDS011;10759;51.982;9.232;2023-04-24T13:04:57;0.80;;;0.80;;
21202;SDS011;10759;51.982;9.232;2023-04-24T13:07:25;0.85;;;0.85;;
21202;SDS011;10759;51.982;9.232;2023-04-24T13:09:54;1.05;;;1.05;;
21202;SDS011;10759;51.982;9.232;2023-04-24T13:12:23;0.90;;;0.90;;
21202;SDS011;10759;51.982;9.232;2023-04-24T13:14:54;1.45;;;1.35;;
21202;SDS011;10759;51.982;9.232;2023-04-24T13:17:22;1.10;;;1.02;;
21202;SDS011;10759;51.982;9.232;2023-04-24T13:19:50;0.93;;;0.93;;
21202;SDS011;10759;51.982;9.232;2023-04-24T13:22:18;1.50;;;1.40;;
21202;SDS011;10759;51.982;9.232;2023-04-24T13:24:46;1.60;;;1.50;;
21202;SDS011;10759;51.982;9.232;2023-04-24T13:27:15;1.70;;;1.60;;
21202;SDS011;10759;51.982;9.232;2023-04-24T13:29:43;3.13;;;1.75;;
21202;SDS011;10759;51.982;9.232;2023-04-24T13:32:13;2.15;;;1.73;;
21202;SDS011;10759;51.982;9.232;2023-04-24T13:34:41;1.73;;;1.63;;
21202;SDS011;10759;51.982;9.232;2023-04-24T13:37:09;3.45;;;2.05;;
21202;SDS011;10759;51.982;9.232;2023-04-24T13:39:37;2.30;;;2.10;;
21202;SDS011;10759;51.982;9.232;2023-04-24T13:42:05;2.25;;;2.15;;
21202;SDS011;10759;51.982;9.232;2023-04-24T13:44:33;2.90;;;2.10;;
21202;SDS011;10759;51.982;9.232;2023-04-24T13:47:01;3.63;;;2.40;;
21202;SDS011;10759;51.982;9.232;2023-04-24T13:49:30;2.58;;;2.38;;
21202;SDS011;10759;51.982;9.232;2023-04-24T13:51:58;2.20;;;1.98;;
21202;SDS011;10759;51.982;9.232;2023-04-24T13:54:26;3.40;;;2.83;;
21202;SDS011;10759;51.982;9.232;2023-04-24T13:56:55;3.63;;;2.80;;
21202;SDS011;10759;51.982;9.232;2023-04-24T13:59:25;6.75;;;6.05;;
21202;SDS011;10759;51.982;9.232;2023-04-24T14:01:53;4.22;;;2.63;;
21202;SDS011;10759;51.982;9.232;2023-04-24T14:04:21;5.97;;;5.43;;
21202;SDS011;10759;51.982;9.232;2023-04-24T14:06:50;5.05;;;4.32;;
21202;SDS011;10759;51.982;9.232;2023-04-24T14:09:18;4.93;;;4.53;;
21202;SDS011;10759;51.982;9.232;2023-04-24T14:11:46;2.92;;;2.72;;
21202;SDS011;10759;51.982;9.232;2023-04-24T14:14:14;3.45;;;2.63;;
21202;SDS011;10759;51.982;9.232;2023-04-24T14:16:42;2.92;;;2.72;;
21202;SDS011;10759;51.982;9.232;2023-04-24T14:19:10;3.53;;;2.45;;
21202;SDS011;10759;51.982;9.232;2023-04-24T14:21:38;3.67;;;3.45;;
21202;SDS011;10759;51.982;9.232;2023-04-24T14:24:07;4.80;;;3.40;;
21202;SDS011;10759;51.982;9.232;2023-04-24T14:26:35;4.13;;;3.47;;
21202;SDS011;10759;51.982;9.232;2023-04-24T14:29:03;4.35;;;3.22;;
21202;SDS011;10759;51.982;9.232;2023-04-24T14:31:40;5.10;;;4.05;;
21202;SDS011;10759;51.982;9.232;2023-04-24T14:34:08;5.43;;;3.88;;
21202;SDS011;10759;51.982;9.232;2023-04-24T14:36:36;5.43;;;4.18;;
21202;SDS011;10759;51.982;9.232;2023-04-24T14:39:04;4.97;;;4.47;;
21202;SDS011;10759;51.982;9.232;2023-04-24T14:41:35;7.63;;;5.15;;
21202;SDS011;10759;51.982;9.232;2023-04-24T14:44:03;6.65;;;5.25;;
21202;SDS011;10759;51.982;9.232;2023-04-24T14:46:31;7.45;;;5.85;;
21202;SDS011;10759;51.982;9.232;2023-04-24T14:49:00;7.05;;;5.80;;
21202;SDS011;10759;51.982;9.232;2023-04-24T14:51:27;8.02;;;6.03;;
21202;SDS011;10759;51.982;9.232;2023-04-24T14:53:56;6.80;;;6.15;;
21202;SDS011;10759;51.982;9.232;2023-04-24T14:56:24;8.80;;;6.55;;
21202;SDS011;10759;51.982;9.232;2023-04-24T14:58:54;9.93;;;7.00;;
21202;SDS011;10759;51.982;9.232;2023-04-24T15:01:22;8.13;;;6.63;;
21202;SDS011;10759;51.982;9.232;2023-04-24T15:03:51;10.50;;;7.60;;
21202;SDS011;10759;51.982;9.232;2023-04-24T15:06:19;8.05;;;7.20;;
21202;SDS011;10759;51.982;9.232;2023-04-24T15:08:47;9.63;;;7.35;;
21202;SDS011;10759;51.982;9.232;2023-04-24T15:11:16;9.18;;;6.70;;
21202;SDS011;10759;51.982;9.232;2023-04-24T15:13:44;7.45;;;6.60;;
21202;SDS011;10759;51.982;9.232;2023-04-24T15:16:14;7.43;;;6.68;;
21202;SDS011;10759;51.982;9.232;2023-04-24T15:18:42;6.33;;;5.73;;
21202;SDS011;10759;51.982;9.232;2023-04-24T15:21:10;8.95;;;4.22;;